Valdez, New Mexico
Current Conditions -  °F | °C
As of 11:15 PM on Wednesday 22 Oct 2014 (Local Time) from KSKX Reporting Station
Scattered Clouds Scattered Clouds  
Wind Chill: 39°   Ceiling: Unl
Heat Index: 43°   Visibility: 10mi
Dew Point: 30°   Wind: 6mph
Humidity: 61%   Direction: 110°ESE
Pressure: 30.28"   Gusts: NA
Location:  36.53°N, 105.58°W
Report Text: KSKX 230515Z AUTO 11005KT 10SM SCT100 06/M01 A3028 RMK AO1
Loading
Personal Weather Stations






























Interactive Weather Map
Tropical Storm Tracking
New forecast layout! Learn more

10-Day Weather Forecast

Advertisements
Track Severe Weather on mobile